createdAt,value
2022-09-01T00:01:29.083Z,100639.44
2022-09-01T00:04:04.291Z,100647.56
2022-09-01T00:06:34.875Z,100641.88
2022-09-01T00:09:04.112Z,100646.09
2022-09-01T00:11:34.117Z,100647.78
2022-09-01T00:14:04.629Z,100645.78
2022-09-01T00:16:31.960Z,100647.56
2022-09-01T00:19:01.899Z,100628.09
2022-09-01T00:21:30.934Z,100637.19
2022-09-01T00:23:59.836Z,100633.06
2022-09-01T00:26:27.575Z,100629.84
2022-09-01T00:28:58.084Z,100636.44
2022-09-01T00:31:30.612Z,100626.31
2022-09-01T00:33:58.120Z,100627.56
2022-09-01T00:36:28.528Z,100632.16
2022-09-01T00:38:57.081Z,100633.66
2022-09-01T00:41:26.100Z,100627.97
2022-09-01T00:43:57.986Z,100625.16
2022-09-01T00:46:30.308Z,100620.97
2022-09-01T00:49:01.836Z,100624.25
2022-09-01T00:51:29.736Z,100627.13
2022-09-01T00:53:57.444Z,100625.28
2022-09-01T00:56:27.350Z,100624.91
2022-09-01T00:58:57.078Z,100624.34
2022-09-01T01:01:28.005Z,100632.13
2022-09-01T01:04:02.230Z,100625.53
2022-09-01T01:06:33.071Z,100632.50
2022-09-01T01:09:02.507Z,100636.97
2022-09-01T01:11:32.452Z,100636.41
2022-09-01T01:14:05.881Z,100637.63
2022-09-01T01:16:35.466Z,100639.25
2022-09-01T01:19:04.187Z,100632.66
2022-09-01T01:21:58.152Z,100639.19
2022-09-01T01:24:29.648Z,100645.88
2022-09-01T01:27:00.223Z,100637.44
2022-09-01T01:29:32.346Z,100637.69
2022-09-01T01:32:02.239Z,100648.47
2022-09-01T01:34:31.965Z,100644.44
2022-09-01T01:37:03.512Z,100643.81
2022-09-01T01:39:36.969Z,100639.47
2022-09-01T01:42:07.836Z,100637.88
2022-09-01T01:44:42.671Z,100639.25
2022-09-01T01:47:13.405Z,100631.44
2022-09-01T01:49:55.550Z,100643.34
2022-09-01T01:52:26.894Z,100642.66
2022-09-01T01:55:00.097Z,100648.28
2022-09-01T01:57:33.099Z,100636.00
2022-09-01T02:00:00.687Z,100637.84
2022-09-01T02:02:30.552Z,100636.34
2022-09-01T02:04:59.351Z,100632.22
2022-09-01T02:07:33.143Z,100631.50
2022-09-01T02:10:02.111Z,100639.56
2022-09-01T02:12:31.687Z,100643.25
2022-09-01T02:15:02.041Z,100634.38
2022-09-01T02:17:31.097Z,100634.75
2022-09-01T02:19:58.594Z,100642.56
2022-09-01T02:22:26.394Z,100642.31
2022-09-01T02:25:21.115Z,100631.88
2022-09-01T02:27:55.539Z,100625.66
2022-09-01T02:30:23.947Z,100622.63
2022-09-01T02:32:51.498Z,100634.13
2022-09-01T02:35:19.221Z,100630.47
2022-09-01T02:37:55.623Z,100626.56
2022-09-01T02:40:31.582Z,100622.66
2022-09-01T02:43:00.432Z,100628.75
2022-09-01T02:45:29.722Z,100636.69
2022-09-01T02:52:21.551Z,100632.78
2022-09-01T02:54:49.847Z,100633.97
2022-09-01T02:57:18.870Z,100636.41
2022-09-01T02:59:47.618Z,100629.84
2022-09-01T03:02:15.084Z,100634.69
2022-09-01T03:04:43.313Z,100625.53
2022-09-01T03:07:10.884Z,100620.19
2022-09-01T03:09:41.716Z,100617.69
2022-09-01T03:12:09.170Z,100623.41
2022-09-01T03:14:36.801Z,100609.16
2022-09-01T03:17:04.380Z,100609.84
2022-09-01T03:19:40.339Z,100614.69
2022-09-01T03:22:10.160Z,100603.97
2022-09-01T03:24:39.272Z,100609.38
2022-09-01T03:27:09.018Z,100610.66
2022-09-01T03:29:39.337Z,100610.56
2022-09-01T03:32:10.528Z,100604.38
2022-09-01T03:34:40.395Z,100603.69
2022-09-01T03:37:08.221Z,100612.75
2022-09-01T03:39:38.122Z,100606.88
2022-09-01T03:42:08.837Z,100610.31
2022-09-01T03:44:40.245Z,100614.81
2022-09-01T03:47:12.699Z,100614.09
2022-09-01T03:49:43.197Z,100611.84
2022-09-01T03:52:13.539Z,100610.13
2022-09-01T03:54:40.931Z,100615.84
2022-09-01T03:57:11.567Z,100609.63
2022-09-01T03:59:43.376Z,100608.72
2022-09-01T04:02:11.488Z,100605.97
2022-09-01T04:04:39.780Z,100607.22
2022-09-01T04:07:09.699Z,100613.75
2022-09-01T04:09:43.943Z,100613.31
2022-09-01T04:12:15.844Z,100609.88
2022-09-01T04:14:48.175Z,100604.59
2022-09-01T04:17:37.935Z,100608.50
2022-09-01T04:20:08.715Z,100609.88
2022-09-01T04:22:38.574Z,100618.53
2022-09-01T04:25:06.780Z,100627.09
2022-09-01T04:27:40.492Z,100617.19
2022-09-01T04:30:11.734Z,100630.50
2022-09-01T04:32:46.967Z,100624.81
2022-09-01T04:35:17.377Z,100627.16
2022-09-01T04:37:47.705Z,100626.00
2022-09-01T04:40:15.931Z,100624.09
2022-09-01T04:42:45.274Z,100623.13
2022-09-01T04:45:20.805Z,100614.66
2022-09-01T04:47:49.950Z,100618.09
2022-09-01T04:50:23.307Z,100612.59
2022-09-01T04:53:16.262Z,100611.00
2022-09-01T04:55:49.686Z,100616.25
2022-09-01T04:58:18.798Z,100600.16
2022-09-01T05:00:52.571Z,100601.69
2022-09-01T05:03:26.334Z,100603.84
2022-09-01T05:06:04.492Z,100609.19
2022-09-01T05:08:36.625Z,100601.44
2022-09-01T05:11:11.997Z,100603.94
2022-09-01T05:13:48.240Z,100601.56
2022-09-01T05:16:25.071Z,100600.75
2022-09-01T05:18:57.314Z,100602.13
2022-09-01T05:21:32.079Z,100599.47
2022-09-01T05:24:01.655Z,100604.44
2022-09-01T05:26:31.253Z,100604.06
2022-09-01T05:28:59.968Z,100609.00
2022-09-01T05:31:29.300Z,100606.72
2022-09-01T05:34:01.912Z,100601.88
2022-09-01T05:36:33.424Z,100594.97
2022-09-01T05:39:04.969Z,100601.69
2022-09-01T05:41:35.771Z,100597.56
2022-09-01T05:44:08.269Z,100606.31
2022-09-01T05:46:39.565Z,100605.81
2022-09-01T05:49:14.817Z,100605.50
2022-09-01T05:51:45.661Z,100612.03
2022-09-01T05:54:16.553Z,100608.75
2022-09-01T05:56:44.866Z,100607.06
2022-09-01T05:59:25.872Z,100612.31
2022-09-01T06:01:58.733Z,100615.06
2022-09-01T06:04:27.089Z,100619.00
2022-09-01T06:07:06.095Z,100622.47
2022-09-01T06:09:39.751Z,100626.66
2022-09-01T06:12:07.854Z,100622.75
2022-09-01T06:14:35.286Z,100637.91
2022-09-01T06:17:03.464Z,100641.38
2022-09-01T06:19:37.012Z,100643.72
2022-09-01T06:22:05.690Z,100638.91
2022-09-01T06:24:33.245Z,100636.44
2022-09-01T06:27:01.439Z,100642.66
2022-09-01T06:29:32.158Z,100647.81
2022-09-01T06:32:02.408Z,100644.59
2022-09-01T06:34:30.026Z,100639.09
2022-09-01T06:36:59.815Z,100657.34
2022-09-01T06:39:31.783Z,100655.13
2022-09-01T06:42:05.764Z,100662.94
2022-09-01T06:44:46.132Z,100662.47
2022-09-01T06:47:17.181Z,100665.81
2022-09-01T06:49:51.772Z,100673.66
2022-09-01T06:52:24.614Z,100677.22
2022-09-01T06:54:54.109Z,100679.84
2022-09-01T07:00:18.862Z,100680.94
2022-09-01T07:02:48.296Z,100678.38
2022-09-01T07:09:19.066Z,100696.09
2022-09-01T07:14:23.920Z,100705.63
2022-09-01T07:17:22.347Z,100714.25
2022-09-01T07:19:51.260Z,100705.94
2022-09-01T07:22:35.985Z,100713.03
2022-09-01T07:25:13.034Z,100718.91
2022-09-01T07:28:06.598Z,100719.34
2022-09-01T07:30:40.771Z,100715.25
2022-09-01T07:45:28.997Z,100736.47
2022-09-01T07:48:06.619Z,100729.78
2022-09-01T07:53:34.663Z,100734.81
2022-09-01T07:56:09.674Z,100727.78
2022-09-01T07:58:44.971Z,100728.13
2022-09-01T08:01:18.975Z,100719.16
2022-09-01T08:03:50.142Z,100725.72
2022-09-01T08:06:41.175Z,100727.22
2022-09-01T08:09:11.464Z,100721.91
2022-09-01T08:12:01.116Z,100722.66
2022-09-01T08:14:33.493Z,100721.63
2022-09-01T08:17:16.944Z,100725.63
2022-09-01T08:19:47.139Z,100722.38
2022-09-01T08:22:24.393Z,100723.97
2022-09-01T08:25:00.909Z,100724.66
2022-09-01T08:27:30.697Z,100726.06
2022-09-01T08:30:00.489Z,100718.75
2022-09-01T08:32:35.738Z,100723.47
2022-09-01T08:35:06.726Z,100728.38
2022-09-01T08:37:39.232Z,100732.41
2022-09-01T08:40:11.189Z,100734.81
2022-09-01T08:42:53.865Z,100737.25
2022-09-01T08:45:28.349Z,100731.41
2022-09-01T08:48:36.792Z,100738.53
2022-09-01T08:50:44.604Z,100732.66
2022-09-01T08:53:52.692Z,100734.84
2022-09-01T08:56:23.239Z,100739.47
2022-09-01T08:58:51.602Z,100734.84
2022-09-01T09:01:57.279Z,100728.53
2022-09-01T09:04:53.377Z,100734.59
2022-09-01T09:07:39.525Z,100739.56
2022-09-01T09:10:29.653Z,100738.72
2022-09-01T09:12:57.802Z,100741.38
2022-09-01T09:15:43.221Z,100740.44
2022-09-01T09:18:34.467Z,100745.63
2022-09-01T09:21:07.683Z,100744.13
2022-09-01T09:23:36.853Z,100742.09
2022-09-01T09:26:08.341Z,100741.00
2022-09-01T09:28:40.256Z,100742.69
2022-09-01T09:31:26.928Z,100748.19
2022-09-01T09:33:55.306Z,100745.44
2022-09-01T09:36:25.419Z,100747.81
2022-09-01T09:39:03.900Z,100735.44
2022-09-01T09:41:34.257Z,100739.19
2022-09-01T09:44:23.142Z,100744.94
2022-09-01T09:46:54.000Z,100741.34
2022-09-01T09:49:34.914Z,100735.53
2022-09-01T09:52:08.825Z,100736.38
2022-09-01T09:54:37.777Z,100736.22
2022-09-01T09:57:05.986Z,100729.00
2022-09-01T10:00:02.074Z,100725.31
2022-09-01T10:02:45.005Z,100730.06
2022-09-01T10:09:23.266Z,100711.00
2022-09-01T10:12:17.998Z,100705.38
2022-09-01T10:14:53.466Z,100711.31
2022-09-01T10:18:20.875Z,100706.22
2022-09-01T10:21:11.184Z,100701.31
2022-09-01T10:23:41.947Z,100694.63
2022-09-01T10:26:14.503Z,100692.66
2022-09-01T10:28:49.944Z,100693.63
2022-09-01T10:31:18.638Z,100683.41
2022-09-01T10:33:51.371Z,100688.00
2022-09-01T10:36:24.462Z,100689.75
2022-09-01T10:39:04.424Z,100698.34
2022-09-01T10:46:05.665Z,100698.09
2022-09-01T10:49:34.735Z,100699.13
2022-09-01T10:56:53.994Z,100696.19
2022-09-01T10:59:37.411Z,100693.81
2022-09-01T11:02:27.739Z,100692.13
2022-09-01T11:06:13.469Z,100688.00
2022-09-01T11:13:06.779Z,100686.97
2022-09-01T11:15:35.747Z,100692.16
2022-09-01T11:21:48.363Z,100691.19
2022-09-01T11:28:36.714Z,100678.56
2022-09-01T11:35:24.009Z,100679.28
2022-09-01T11:37:53.233Z,100670.94
2022-09-01T11:40:26.022Z,100672.38
2022-09-01T11:44:12.986Z,100669.16
2022-09-01T11:46:43.460Z,100669.84
2022-09-01T11:50:03.453Z,100668.03
2022-09-01T11:52:36.725Z,100672.28
2022-09-01T11:55:05.575Z,100674.84
2022-09-01T11:58:02.248Z,100679.84
2022-09-01T12:00:34.045Z,100678.56
2022-09-01T12:03:02.055Z,100678.13
2022-09-01T12:06:00.459Z,100681.50
2022-09-01T12:08:30.813Z,100685.16
2022-09-01T12:11:05.993Z,100688.38
2022-09-01T12:13:33.746Z,100684.47
2022-09-01T12:16:17.913Z,100699.91
2022-09-01T12:18:50.111Z,100688.53
2022-09-01T12:21:24.250Z,100691.69
2022-09-01T12:23:55.245Z,100693.81
2022-09-01T12:26:29.547Z,100687.53
2022-09-01T12:29:00.522Z,100678.31
2022-09-01T12:31:31.210Z,100679.75
2022-09-01T12:34:26.684Z,100684.25
2022-09-01T12:37:08.518Z,100676.22
2022-09-01T12:39:39.971Z,100667.63
2022-09-01T12:42:12.508Z,100671.47
2022-09-01T12:44:40.176Z,100694.72
2022-09-01T12:47:12.260Z,100678.69
2022-09-01T12:49:52.035Z,100688.44
2022-09-01T12:52:20.444Z,100679.88
2022-09-01T12:54:48.816Z,100668.44
2022-09-01T12:57:32.049Z,100671.88
2022-09-01T13:00:26.286Z,100675.81
2022-09-01T13:03:14.345Z,100674.31
2022-09-01T13:05:42.901Z,100666.75
2022-09-01T13:08:18.377Z,100672.63
2022-09-01T13:14:31.533Z,100667.13
2022-09-01T13:16:59.451Z,100668.53
2022-09-01T13:20:19.235Z,100665.66
2022-09-01T13:22:47.238Z,100670.03
2022-09-01T13:25:20.526Z,100672.06
2022-09-01T13:28:40.898Z,100674.41
2022-09-01T13:34:10.808Z,100680.31
2022-09-01T13:36:52.112Z,100674.25
2022-09-01T13:39:21.121Z,100673.31
2022-09-01T13:41:49.441Z,100674.50
2022-09-01T13:44:22.090Z,100682.66
2022-09-01T13:50:06.111Z,100682.47
2022-09-01T13:52:33.833Z,100683.81
2022-09-01T13:55:01.840Z,100688.22
2022-09-01T13:57:36.531Z,100681.81
2022-09-01T14:00:05.749Z,100685.63
2022-09-01T14:02:50.169Z,100684.63
2022-09-01T14:05:20.712Z,100680.44
2022-09-01T14:07:49.116Z,100674.63
2022-09-01T14:10:17.715Z,100688.53
2022-09-01T14:12:47.536Z,100687.94
2022-09-01T14:15:18.400Z,100682.75
2022-09-01T14:17:47.972Z,100691.78
2022-09-01T14:20:18.327Z,100683.31
2022-09-01T14:22:49.601Z,100687.28
2022-09-01T14:25:18.953Z,100678.94
2022-09-01T14:27:48.612Z,100673.31
2022-09-01T14:30:31.185Z,100682.53
2022-09-01T14:33:01.745Z,100682.00
2022-09-01T14:35:33.345Z,100678.53
2022-09-01T14:38:08.696Z,100671.38
2022-09-01T14:40:38.081Z,100672.00
2022-09-01T14:43:06.709Z,100680.31
2022-09-01T14:45:39.855Z,100682.88
2022-09-01T14:48:09.964Z,100679.03
2022-09-01T14:50:40.127Z,100682.50
2022-09-01T14:59:41.191Z,100680.63
2022-09-01T15:02:12.468Z,100674.63
2022-09-01T15:04:40.486Z,100678.59
2022-09-01T15:07:08.319Z,100675.69
2022-09-01T15:09:40.706Z,100674.31
2022-09-01T15:12:09.653Z,100678.47
2022-09-01T15:14:37.927Z,100680.16
2022-09-01T15:17:07.945Z,100680.50
2022-09-01T15:19:36.589Z,100671.19
2022-09-01T15:22:04.746Z,100681.41
2022-09-01T15:24:35.601Z,100674.34
2022-09-01T15:27:06.962Z,100669.41
2022-09-01T15:29:59.585Z,100674.69
2022-09-01T15:32:29.661Z,100683.03
2022-09-01T15:34:59.590Z,100679.03
2022-09-01T15:37:27.640Z,100678.69
2022-09-01T15:39:55.641Z,100682.78
2022-09-01T15:42:25.648Z,100674.44
2022-09-01T15:44:53.197Z,100677.59
2022-09-01T15:47:21.714Z,100679.84
2022-09-01T15:49:49.367Z,100687.13
2022-09-01T15:52:22.104Z,100690.19
2022-09-01T15:54:51.794Z,100685.97
2022-09-01T15:57:19.289Z,100691.69
2022-09-01T15:59:51.658Z,100693.38
2022-09-01T16:02:21.579Z,100695.84
2022-09-01T16:04:51.419Z,100696.41
2022-09-01T16:07:20.220Z,100700.69
2022-09-01T16:09:47.749Z,100699.25
2022-09-01T16:12:15.323Z,100701.56
2022-09-01T16:14:45.152Z,100710.47
2022-09-01T16:17:17.211Z,100711.22
2022-09-01T16:19:55.083Z,100716.06
2022-09-01T16:22:25.493Z,100722.13
2022-09-01T16:24:54.611Z,100721.50
2022-09-01T16:27:25.809Z,100729.75
2022-09-01T16:29:53.907Z,100728.44
2022-09-01T16:32:23.494Z,100720.88
2022-09-01T16:34:53.687Z,100726.81
2022-09-01T16:37:21.394Z,100731.91
2022-09-01T16:39:50.758Z,100728.94
2022-09-01T16:42:28.140Z,100722.72
2022-09-01T16:44:58.545Z,100729.63
2022-09-01T16:47:34.593Z,100732.84
2022-09-01T16:50:05.446Z,100739.13
2022-09-01T16:52:37.611Z,100736.19
2022-09-01T16:55:22.736Z,100739.75
2022-09-01T16:57:59.010Z,100737.88
2022-09-01T17:00:30.968Z,100743.63
2022-09-01T17:03:01.448Z,100746.09
2022-09-01T17:05:31.198Z,100748.41
2022-09-01T17:08:10.472Z,100755.66
2022-09-01T17:10:55.080Z,100754.16
2022-09-01T17:13:32.388Z,100749.56
2022-09-01T17:16:26.478Z,100760.47
2022-09-01T17:19:00.795Z,100759.69
2022-09-01T17:21:32.453Z,100763.56
2022-09-01T17:24:12.510Z,100762.09
2022-09-01T17:26:40.667Z,100753.25
2022-09-01T17:29:16.003Z,100757.84
2022-09-01T17:31:53.182Z,100759.44
2022-09-01T17:34:40.208Z,100772.34
2022-09-01T17:37:29.135Z,100776.44
2022-09-01T17:39:56.612Z,100780.38
2022-09-01T17:42:28.034Z,100779.22
2022-09-01T17:45:00.626Z,100776.47
2022-09-01T17:47:40.897Z,100777.81
2022-09-01T17:50:21.216Z,100775.53
2022-09-01T17:52:52.364Z,100780.56
2022-09-01T17:55:26.322Z,100780.13
2022-09-01T17:57:58.533Z,100780.13
2022-09-01T18:00:25.784Z,100781.16
2022-09-01T18:02:53.240Z,100789.06
2022-09-01T18:05:24.671Z,100795.94
2022-09-01T18:07:57.269Z,100795.47
2022-09-01T18:10:44.932Z,100808.13
2022-09-01T18:13:42.513Z,100813.75
2022-09-01T18:16:20.272Z,100817.09
2022-09-01T18:18:49.029Z,100823.88
2022-09-01T18:21:20.705Z,100828.94
2022-09-01T18:23:49.761Z,100824.84
2022-09-01T18:26:38.157Z,100826.47
2022-09-01T18:29:05.945Z,100832.66
2022-09-01T18:31:34.150Z,100830.97
2022-09-01T18:34:20.032Z,100840.66
2022-09-01T18:36:53.122Z,100849.72
2022-09-01T18:39:33.105Z,100849.41
2022-09-01T18:42:19.064Z,100857.06
2022-09-01T18:44:46.362Z,100853.53
2022-09-01T18:47:14.556Z,100853.31
2022-09-01T18:49:52.440Z,100861.09
2022-09-01T18:52:39.295Z,100860.56
2022-09-01T18:55:16.427Z,100867.91
2022-09-01T18:57:43.870Z,100880.09
2022-09-01T19:00:18.961Z,100879.09
2022-09-01T19:02:49.877Z,100884.06
2022-09-01T19:05:31.428Z,100882.03
2022-09-01T19:08:04.650Z,100877.56
2022-09-01T19:10:41.449Z,100885.28
2022-09-01T19:13:14.917Z,100876.91
2022-09-01T19:16:14.051Z,100884.19
2022-09-01T19:18:41.397Z,100885.06
2022-09-01T19:21:27.952Z,100889.38
2022-09-01T19:24:13.234Z,100890.34
2022-09-01T19:26:42.743Z,100894.22
2022-09-01T19:29:19.001Z,100891.31
2022-09-01T19:31:50.577Z,100893.41
2022-09-01T19:34:19.495Z,100891.75
2022-09-01T19:36:54.417Z,100899.22
2022-09-01T19:39:25.785Z,100894.41
2022-09-01T19:41:54.179Z,100893.59
2022-09-01T19:44:42.224Z,100897.53
2022-09-01T19:47:13.773Z,100905.69
2022-09-01T19:49:47.061Z,100908.25
2022-09-01T19:52:16.084Z,100912.06
2022-09-01T19:54:52.251Z,100917.84
2022-09-01T19:57:23.771Z,100923.47
2022-09-01T19:59:54.217Z,100926.78
2022-09-01T20:02:30.418Z,100920.84
2022-09-01T20:05:08.000Z,100918.50
2022-09-01T20:07:49.530Z,100921.13
2022-09-01T20:10:27.536Z,100925.97
2022-09-01T20:12:57.887Z,100917.66
2022-09-01T20:15:35.497Z,100919.06
2022-09-01T20:18:04.345Z,100921.88
2022-09-01T20:20:38.201Z,100920.88
2022-09-01T20:23:10.686Z,100920.47
2022-09-01T20:25:41.459Z,100915.44
2022-09-01T20:28:18.047Z,100913.47
2022-09-01T20:30:51.137Z,100910.72
2022-09-01T20:33:18.655Z,100920.22
2022-09-01T20:35:49.077Z,100922.47
2022-09-01T20:38:43.101Z,100929.34
2022-09-01T20:41:12.686Z,100934.53
2022-09-01T20:43:41.395Z,100939.75
2022-09-01T20:46:08.868Z,100940.06
2022-09-01T20:48:40.030Z,100948.78
2022-09-01T20:51:27.806Z,100947.97
2022-09-01T20:54:01.237Z,100948.38
2022-09-01T20:56:40.750Z,100948.91
2022-09-01T20:59:16.879Z,100945.59
2022-09-01T21:01:49.377Z,100950.56
2022-09-01T21:04:41.200Z,100951.41
2022-09-01T21:07:08.531Z,100953.81
2022-09-01T21:09:38.924Z,100952.59
2022-09-01T21:12:24.731Z,100949.09
2022-09-01T21:15:01.909Z,100956.38
2022-09-01T21:17:48.960Z,100963.22
2022-09-01T21:20:16.309Z,100968.47
2022-09-01T21:22:43.696Z,100966.03
2022-09-01T21:25:11.125Z,100960.38
2022-09-01T21:27:43.881Z,100961.41
2022-09-01T21:30:12.534Z,100967.50
2022-09-01T21:32:39.946Z,100980.16
2022-09-01T21:35:08.707Z,100977.66
2022-09-01T21:37:36.120Z,100986.44
2022-09-01T21:40:03.984Z,100970.72
2022-09-01T21:42:52.275Z,100975.41
2022-09-01T21:45:19.704Z,100971.94
2022-09-01T21:47:49.447Z,100981.94
2022-09-01T21:50:17.659Z,100984.13
2022-09-01T21:52:45.225Z,100979.28
2022-09-01T21:55:12.543Z,100976.94
2022-09-01T21:57:40.139Z,100975.25
2022-09-01T22:00:11.251Z,100977.59
2022-09-01T22:02:42.533Z,100971.91
2022-09-01T22:05:10.078Z,100971.56
2022-09-01T22:07:40.418Z,100968.84
2022-09-01T22:10:11.161Z,100968.31
2022-09-01T22:12:42.071Z,100974.28
2022-09-01T22:15:12.648Z,100963.63
2022-09-01T22:17:39.942Z,100970.41
2022-09-01T22:20:08.497Z,100983.13
2022-09-01T22:22:35.804Z,100969.03
2022-09-01T22:25:07.812Z,100979.16
2022-09-01T22:27:35.115Z,100977.38
2022-09-01T22:30:06.997Z,100985.03
2022-09-01T22:32:36.316Z,100991.28
2022-09-01T22:35:04.315Z,100984.41
2022-09-01T22:37:31.698Z,100985.56
2022-09-01T22:40:06.968Z,100987.22
2022-09-01T22:42:35.264Z,100983.09
2022-09-01T22:45:05.699Z,100994.78
2022-09-01T22:47:37.109Z,100988.53
2022-09-01T22:50:06.639Z,100995.91
2022-09-01T22:52:35.672Z,100995.19
2022-09-01T22:55:03.415Z,100994.34
2022-09-01T22:57:30.735Z,101000.41
2022-09-01T22:59:57.981Z,100995.94
2022-09-01T23:02:25.423Z,100999.44
2022-09-01T23:04:52.932Z,100994.56
2022-09-01T23:07:20.311Z,100993.91
2022-09-01T23:09:47.664Z,100987.19
2022-09-01T23:12:15.727Z,101000.47
2022-09-01T23:14:42.984Z,101002.66
2022-09-01T23:17:10.258Z,100999.63
2022-09-01T23:19:37.600Z,101008.97
2022-09-01T23:22:31.227Z,101000.44
2022-09-01T23:24:58.545Z,101004.78
2022-09-01T23:27:25.804Z,101002.97
2022-09-01T23:29:53.035Z,101004.22
2022-09-01T23:32:20.354Z,101012.13
2022-09-01T23:34:53.522Z,101002.88
2022-09-01T23:37:20.759Z,101002.66
2022-09-01T23:39:48.448Z,101001.56
2022-09-01T23:42:16.961Z,100993.09
2022-09-01T23:45:07.145Z,100995.06
2022-09-01T23:47:35.630Z,100989.78
2022-09-01T23:50:05.831Z,100995.63
2022-09-01T23:52:33.300Z,100989.47
2022-09-01T23:55:01.157Z,100991.38
2022-09-01T23:57:28.509Z,100988.22
2022-09-01T23:59:57.003Z,100991.78
